Flight Track Log - Related Links

Times and Time Zones

All times are in EDT time to prevent confusion due to time zone crossing. See the N100AW flight status page for this flight to view local times or setup timezone preferences in your user account.

Time Position Orientation Groundspeed Altitude Reporting Facility
EDT Latitude Longitude Course Direction KTS MPH feet Rate Location/Type
Sun 01:35:39 PM 26.1975 -80.1656 85° East 127 146 400  Level Miami Center
Sun 01:36:28 PM 26.2006 -80.1239 85° East 152 175 2,000 1,582 Climbing Miami Center
Sun 01:37:29 PM 26.2039 -80.0639 86° East 214 246 3,300 1,388 Climbing Miami Center
Sun 01:38:29 PM 26.2117 -79.9922 83° East 231 266 4,800 800 Climbing Miami Center
Sun 01:39:29 PM 26.2178 -79.9092 85° East 288 331 4,900 450 Climbing Miami Center
Sun 01:40:29 PM 26.2236 -79.8258 86° East 283 326 5,700 1,150 Climbing Miami Center
Sun 01:41:29 PM 26.2128 -79.7422 98° East 273 314 7,200 1,350 Climbing Miami Center
Sun 01:42:29 PM 26.1914 -79.6606 106° East 273 314 8,400 1,250 Climbing Miami Center
Sun 01:43:29 PM 26.1511 -79.5786 119° Southeast 280 322 9,700 1,350 Climbing Miami Center
Sun 01:44:29 PM 26.1128 -79.5014 119° Southeast 285 328 11,100 1,100 Climbing Miami Center
Sun 01:45:29 PM 26.0533 -79.4447 139° Southeast 273 314 11,900 850 Climbing Miami Center
Sun 01:46:29 PM 25.9633 -79.4567 187° South 267 307 12,800 1,000 Climbing Miami Center
Sun 01:47:29 PM 25.8878 -79.4711 190° South 304 350 13,900 1,000 Climbing Miami Center
Sun 01:48:29 PM 25.7914 -79.4828 186° South 312 359 14,800 800 Climbing Miami Center
Sun 01:49:29 PM 25.7058 -79.4742 175° South 312 359 15,500 700 Climbing Miami Center
Sun 01:50:29 PM 25.6142 -79.4628 132° Southeast 312 359 16,200 650 Climbing Miami Center
Sun 01:51:29 PM 25.5225 -79.4469 171° South 324 373 16,800 1,100 Climbing Miami Center
Sun 01:52:29 PM 25.4372 -79.4222 165° South 329 379 18,400 1,350 Climbing Miami Center
Sun 01:53:29 PM 25.3650 -79.3747 149° Southeast 323 372 19,500 1,050 Climbing Miami Center
Sun 01:54:29 PM 25.3183 -79.3003 125° Southeast 291 335 20,500 900 Climbing Miami Center
Sun 01:55:29 PM 25.2650 -79.2281 129° Southeast 297 342 21,300 850 Climbing Miami Center
Sun 01:56:29 PM 25.2056 -79.1533 131° Southeast 309 356 22,200 850 Climbing Miami Center
Sun 01:57:29 PM 25.1483 -79.0789 130° Southeast 320 368 23,000 850 Climbing Miami Center
Sun 01:58:29 PM 25.0950 -79.0019 127° Southeast 320 368 23,900 750 Climbing Miami Center
Sun 01:59:29 PM 25.0417 -78.9369 132° Southeast 315 362 24,500 550 Climbing Miami Center
Sun 02:00:29 PM 24.9883 -78.8581 127° Southeast 315 362 25,000 650 Climbing Miami Center
Sun 02:01:29 PM 24.9311 -78.7792 129° Southeast 321 369 25,800 1,000 Climbing Miami Center
Sun 02:02:29 PM 24.8736 -78.6958 127° Southeast 334 384 27,000 1,000 Climbing Miami Center
Sun 02:03:29 PM 24.8181 -78.6150 127° Southeast 341 392 27,800 900 Climbing Miami Center
Sun 02:04:29 PM 24.7522 -78.5317 131° Southeast 341 392 28,800 850 Climbing Miami Center
Sun 02:05:29 PM 24.6906 -78.4439 128° Southeast 346 398 29,500 750 Climbing Miami Center
Sun 02:06:29 PM 24.6286 -78.3586 129° Southeast 357 411 30,300 800 Climbing Miami Center
Sun 02:07:29 PM 24.5647 -78.2686 128° Southeast 363 418 31,100 700 Climbing Miami Center
Sun 02:08:29 PM 24.5008 -78.1811 129° Southeast 363 418 31,700 600 Climbing Miami Center
Sun 02:09:29 PM 24.4325 -78.0892 129° Southeast 373 429 32,300 700 Climbing Miami Center
Sun 02:10:29 PM 24.3686 -77.9972 127° Southeast 379 436 33,100 800 Climbing Miami Center
Sun 02:11:29 PM 24.3022 -77.9078 129° Southeast 379 436 33,900 850 Climbing Miami Center
Sun 02:12:29 PM 24.2381 -77.8161 128° Southeast 379 436 34,800 700 Climbing Miami Center
Sun 02:13:29 PM 24.1739 -77.7289 129° Southeast 374 430 35,300 600 Climbing Miami Center
Sun 02:14:29 PM 24.1094 -77.6397 128° Southeast 374 430 36,000 600 Climbing Miami Center
Sun 02:15:29 PM 24.0453 -77.5506 128° Southeast 374 430 36,500 350 Climbing Miami Center
Sun 02:16:29 PM 23.9808 -77.4639 129° Southeast 369 425 36,700 250 Climbing Miami Center
Sun 02:17:29 PM 23.9142 -77.3750 129° Southeast 369 425 37,000 400 Climbing Miami Center
Sun 02:18:29 PM 23.8478 -77.2861 129° Southeast 376 433 37,500 450 Climbing Miami Center
Sun 02:19:29 PM 23.7853 -77.1994 128° Southeast 371 427 37,900 400 Climbing Miami Center
Sun 02:20:29 PM 23.7206 -77.1131 129° Southeast 371 427 38,300 350 Climbing Miami Center
Sun 02:21:29 PM 23.6539 -77.0244 129° Southeast 371 427 38,600 250 Climbing Miami Center
Sun 02:22:29 PM 23.5892 -76.9358 129° Southeast 376 433 38,800 200 Climbing Miami Center
Sun 02:23:29 PM 23.5264 -76.8497 128° Southeast 371 427 39,000 200 Climbing Miami Center
Sun 02:24:29 PM 23.4594 -76.7592 129° Southeast 376 433 39,200 400 Climbing Miami Center
Sun 02:25:29 PM 23.3947 -76.6733 129° Southeast 371 427 39,800 250 Climbing Miami Center
Sun 02:26:29 PM 23.3317 -76.5897 129° Southeast 366 421 39,700 -200 Descending Miami Center
Sun 02:27:29 PM 23.2669 -76.5039 129° Southeast 366 421 39,400 -350 Descending Miami Center
Sun 02:28:29 PM 23.1975 -76.4092 129° Southeast 380 437 39,000 -200 Descending Miami Center
Sun 02:29:29 PM 23.1242 -76.3144 130° Southeast 398 458 39,000  Level Miami Center
Sun 02:30:29 PM 23.0506 -76.2200 130° Southeast 404 465 39,000  Level Miami Center
Sun 02:31:29 PM 22.9769 -76.1167 128° Southeast 414 476 39,000  Level Miami Center
Sun 02:32:29 PM 22.8992 -76.0178 130° Southeast 425 489 39,000  Level Miami Center
Sun 02:33:29 PM 22.8233 -75.9169 129° Southeast 430 495 39,000  Level Miami Center
Sun 02:34:29 PM 22.7475 -75.8139 129° Southeast 430 495 39,000  Level Miami Center
Sun 02:35:29 PM 22.6694 -75.7131 130° Southeast 430 495 39,000  Level Miami Center
Sun 02:36:29 PM 22.5914 -75.6103 129° Southeast 430 495 39,000  Level Miami Center
Sun 02:37:29 PM 22.5131 -75.5075 130° Southeast 430 495 39,000  Level Miami Center
Sun 02:38:29 PM 22.4369 -75.4050 129° Southeast 430 495 39,000  Level Miami Center
Sun 02:39:29 PM 22.3586 -75.3025 130° Southeast 435 501 39,000  Level Miami Center
Sun 02:40:29 PM 22.2742 -75.2117 135° Southeast 435 501 39,000  Level Miami Center
Sun 02:41:29 PM 22.1811 -75.1231 139° Southeast 430 495 39,000  Level Miami Center
Sun 02:42:29 PM 22.0883 -75.0369 139° Southeast 441 507 39,000  Level Miami Center
Sun 02:43:29 PM 21.9953 -74.9486 139° Southeast 441 507 39,000  Level Miami Center
Sun 02:44:29 PM 21.9022 -74.8628 139° Southeast 441 507 39,000  Level Miami Center
Sun 02:45:29 PM 21.8011 -74.7950 148° Southeast 436 502 39,000  Level Miami Center
Sun 02:46:29 PM 21.6792 -74.7297 154° Southeast 436 502 39,000  Level Miami Center
Sun 02:47:29 PM 21.5700 -74.6869 160° South 430 495 39,000  Level Miami Center
Sun 02:48:29 PM 21.4547 -74.6553 166° South 430 495 39,000  Level Miami Center
Sun 02:49:29 PM 21.3436 -74.6236 165° South 419 482 39,000  Level Miami Center
Sun 02:50:29 PM 21.2306 -74.5944 166° South 414 476 39,000  Level Miami Center
Sun 02:51:29 PM 21.1194 -74.5650 166° South 414 476 39,000  Level Miami Center
Sun 02:52:29 PM 21.0042 -74.5336 166° South 414 476 39,000  Level Miami Center
Sun 02:53:29 PM 20.8908 -74.5044 166° South 414 476 39,000 -50 Level Miami Center
Sun 02:54:29 PM 20.7756 -74.4778 168° South 414 476 38,900  Descending Miami Center
Sun 02:55:29 PM 20.6847 -74.3994 141° Southeast 414 476 39,000 50 Climbing Miami Center
Sun 02:56:29 PM 20.6203 -74.2831 121° Southeast 416 479 39,000  Level Miami Center
Sun 02:57:29 PM 20.5681 -74.1667 116° Southeast 422 486 39,000  Level Miami Center
Sun 02:58:29 PM 20.5139 -74.0481 116° Southeast 432 497 39,000 -50 Level Miami Center
Sun 02:59:29 PM 20.4575 -73.9297 117° Southeast 437 503 38,900 -50 Descending Miami Center
Sun 03:00:29 PM 20.4072 -73.8114 114° Southeast 443 510 38,900 50 Level Miami Center
Sun 03:01:29 PM 20.3525 -73.6908 116° Southeast 443 510 39,000 50 Climbing Miami Center
Sun 03:02:29 PM 20.3022 -73.5747 115° Southeast 443 510 39,000  Level Miami Center
Sun 03:03:29 PM 20.2475 -73.4611 117° Southeast 438 504 39,000  Level Miami Center
Sun 03:04:29 PM 20.1992 -73.3431 114° Southeast 433 498 39,000 -50 Level Miami Center
Sun 03:05:29 PM 20.1319 -73.2322 123° Southeast 433 498 38,900 -100 Descending Miami Center
Sun 03:07:00 PM 19.9784 -73.1699 159° South  Level Estimated
Sun 03:14:00 PM 19.2696 -72.8839 159° South  Level Estimated
Sun 03:15:00 PM 19.1683 -72.8433 159° South  Level Estimated
Sun 03:16:00 PM 19.0670 -72.8027 159° South  Level Estimated
Sun 03:17:00 PM 18.9657 -72.7621 159° South  Level Estimated
Sun 03:18:00 PM 18.8644 -72.7216 159° South  Level Estimated
Sun 03:19:00 PM 18.7630 -72.6812 159° South  Level Estimated
Sun 03:20:00 PM 18.6617 -72.6408 159° South  Level Estimated
Sun 03:21:00 PM 18.5604 -72.6004 159° South  Level Estimated
Sun 03:22:00 PM 18.4590 -72.5601 159° South  Level Estimated
Sun 03:23:00 PM 18.3576 -72.5199 159° South  Level Estimated
Sun 03:24:00 PM 18.2562 -72.4797 159° South  Level Estimated
Sun 03:25:00 PM 18.1549 -72.4395 159° South  Level Estimated
Sun 03:26:00 PM 18.0535 -72.3994 159° South  Level Estimated
Sun 03:27:00 PM 17.9521 -72.3593 159° South  Level Estimated
Sun 03:28:00 PM 17.8507 -72.3193 159° South  Level Estimated
Sun 03:29:00 PM 17.7492 -72.2793 159° South  Level Estimated
Sun 03:30:00 PM 17.6478 -72.2393 159° South  Level Estimated
Sun 03:31:00 PM 17.5464 -72.1994 159° South  Level Estimated
Sun 03:32:00 PM 17.4450 -72.1596 159° South  Level Estimated
Sun 03:33:00 PM 17.3435 -72.1198 159° South  Level Estimated
Sun 03:34:00 PM 17.2420 -72.0800 159° South  Level Estimated
Sun 03:35:00 PM 17.1406 -72.0403 159° South  Level Estimated
Sun 03:36:00 PM 17.0391 -72.0007 160° South  Level Estimated
Sun 03:37:00 PM 16.9376 -71.9610 160° South  Level Estimated
Sun 03:38:00 PM 16.8361 -71.9214 160° South  Level Estimated
Sun 03:39:00 PM 16.7346 -71.8819 160° South  Level Estimated
Sun 03:40:00 PM 16.6332 -71.8424 160° South  Level Estimated
Sun 03:41:00 PM 16.5316 -71.8029 160° South  Level Estimated
Sun 03:42:00 PM 16.4301 -71.7635 160° South  Level Estimated
Sun 03:43:00 PM 16.3286 -71.7241 160° South  Level Estimated
Sun 03:44:00 PM 16.2271 -71.6848 160° South  Level Estimated
Sun 03:45:00 PM 16.1255 -71.6455 160° South  Level Estimated
Sun 03:46:00 PM 16.0240 -71.6063 160° South  Level Estimated
Sun 03:47:00 PM 15.9224 -71.5670 160° South  Level Estimated
Sun 03:48:00 PM 15.8209 -71.5279 160° South  Level Estimated
Sun 03:49:00 PM 15.7193 -71.4887 160° South  Level Estimated
Sun 03:50:00 PM 15.6177 -71.4496 160° South  Level Estimated
Sun 03:51:00 PM 15.5162 -71.4106 160° South  Level Estimated
Sun 03:52:00 PM 15.4146 -71.3716 160° South  Level Estimated
Sun 03:53:00 PM 15.3130 -71.3326 160° South  Level Estimated
Sun 03:54:00 PM 15.2114 -71.2936 160° South  Level Estimated
Sun 03:55:00 PM 15.1097 -71.2547 160° South  Level Estimated
Sun 03:56:00 PM 15.0081 -71.2159 160° South  Level Estimated
Sun 03:57:00 PM 14.9065 -71.1770 160° South  Level Estimated
Sun 03:58:00 PM 14.8049 -71.1382 160° South  Level Estimated
Sun 03:59:00 PM 14.7032 -71.0995 160° South  Level Estimated
Sun 04:00:00 PM 14.6016 -71.0607 160° South  Level Estimated
Sun 04:01:00 PM 14.5000 -71.0220 160° South  Level Estimated
Sun 04:02:00 PM 14.3983 -70.9834 160° South  Level Estimated
Sun 04:03:00 PM 14.2966 -70.9448 160° South  Level Estimated
Sun 04:04:00 PM 14.1950 -70.9062 160° South  Level Estimated
Sun 04:05:00 PM 14.0933 -70.8677 160° South  Level Estimated
Sun 04:06:00 PM 13.9916 -70.8291 160° South  Level Estimated
Sun 04:07:00 PM 13.8899 -70.7907 160° South  Level Estimated
Sun 04:08:00 PM 13.7883 -70.7522 160° South  Level Estimated
Sun 04:09:00 PM 13.6866 -70.7138 160° South  Level Estimated
Sun 04:10:00 PM 13.5849 -70.6754 160° South  Level Estimated
Sun 04:11:00 PM 13.4831 -70.6371 160° South  Level Estimated
Sun 04:12:00 PM 13.3814 -70.5988 160° South  Level Estimated
Sun 04:13:00 PM 13.2797 -70.5605 160° South  Level Estimated
Sun 04:14:00 PM 13.1780 -70.5222 160° South  Level Estimated
Sun 04:15:00 PM 13.0763 -70.4840 160° South  Level Estimated
Sun 04:16:00 PM 12.9745 -70.4458 160° South  Level Estimated
Sun 04:17:00 PM 12.8728 -70.4077 160° South  Level Estimated
Sun 04:18:00 PM 12.7710 -70.3696 160° South  Level Estimated
Sun 04:19:00 PM 12.6693 -70.3315 160° South  Level Estimated
Sun 04:20:00 PM 12.5675 -70.2934 160° South  Level Estimated
Sun 04:21:00 PM 12.4658 -70.2554 160° South  Level Estimated
Sun 04:22:00 PM 12.3640 -70.2174 160° South  Level Estimated
Sun 04:23:00 PM 12.2622 -70.1794 160° South  Level Estimated
Sun 04:24:00 PM 12.1604 -70.1415 160° South  Level Estimated
Sun 04:25:00 PM 12.0587 -70.1036 160° South  Level Estimated
Sun 04:26:00 PM 11.9569 -70.0657 160° South  Level Estimated
Sun 04:27:00 PM 11.8551 -70.0278 160° South  Level Estimated
Sun 04:28:00 PM 11.7533 -69.9900 160° South  Level Estimated
Sun 04:29:00 PM 11.6515 -69.9522 160° South  Level Estimated
Sun 04:30:00 PM 11.5496 -69.9144 160° South  Level Estimated
Sun 04:31:00 PM 11.4478 -69.8767 160° South  Level Estimated
Sun 04:32:00 PM 11.3460 -69.8390 160° South  Level Estimated
Sun 04:33:00 PM 11.2442 -69.8013 160° South  Level Estimated
Sun 04:34:00 PM 11.1424 -69.7636 160° South  Level Estimated
Sun 04:35:00 PM 11.0405 -69.7260 160° South  Level Estimated
Sun 04:36:00 PM 10.9387 -69.6884 160° South  Level Estimated
Sun 04:37:00 PM 10.8368 -69.6508 160° South  Level Estimated
Sun 04:38:00 PM 10.7350 -69.6132 160° South  Level Estimated
Sun 04:39:00 PM 10.6331 -69.5757 160° South  Level Estimated
Sun 04:40:00 PM 10.5313 -69.5382 160° South  Level Estimated
Sun 04:41:00 PM 10.4294 -69.5007 160° South  Level Estimated
Sun 04:42:00 PM 10.3275 -69.4632 160° South  Level Estimated
Sun 04:43:00 PM 10.2257 -69.4258 160° South  Level Estimated
Sun 04:44:00 PM 10.1238 -69.3884 160° South  Level Estimated
Sun 04:45:00 PM 10.0428 -69.3586 160° South  Level Estimated
Sun 04:46:00 PM 10.0428 -69.3586 162° South  Level Estimated
Sun 04:47:00 PM 10.0428 -69.3586 162° South  Level Estimated
Sun 04:48:00 PM 10.0428 -69.3586 162° South  Level Estimated
Sun 04:49:00 PM 10.0428 -69.3586 162° South  Level Estimated
Sun 04:50:00 PM 10.0428 -69.3586 162° South  Level Estimated
Sun 04:51:00 PM 10.0428 -69.3586 162° South  Level Estimated
Sun 04:52:00 PM 10.0428 -69.3586 162° South  Level Estimated
Sun 04:53:00 PM 10.0428 -69.3586 162° South  Level Estimated
Sun 04:54:00 PM 10.0428 -69.3586 162° South  Level Estimated
Sun 04:55:00 PM 10.0428 -69.3586 162° South  Level Estimated
Sun 04:56:00 PM 10.0428 -69.3586 162° South  Level Estimated

Login

Don't have an account? Register now (free) for customized features, flight alerts, and more!